createdAt,value
2023-08-15T00:00:51.191Z,5.10
2023-08-15T00:06:54.540Z,5.53
2023-08-15T00:09:56.213Z,4.75
2023-08-15T00:12:57.949Z,5.30
2023-08-15T00:16:00.988Z,5.20
2023-08-15T00:19:02.734Z,5.53
2023-08-15T00:22:04.443Z,5.53
2023-08-15T00:25:06.434Z,5.43
2023-08-15T00:28:08.106Z,5.80
2023-08-15T00:31:11.163Z,4.78
2023-08-15T00:37:14.390Z,5.60
2023-08-15T00:40:16.191Z,5.60
2023-08-15T00:43:17.808Z,5.20
2023-08-15T00:46:20.958Z,5.50
2023-08-15T00:49:23.072Z,5.63
2023-08-15T00:52:24.847Z,4.70
2023-08-15T00:55:27.346Z,6.00
2023-08-15T00:58:30.454Z,5.60
2023-08-15T01:04:38.670Z,5.55
2023-08-15T01:07:40.391Z,5.72
2023-08-15T01:10:43.755Z,5.55
2023-08-15T01:13:54.106Z,5.30
2023-08-15T01:16:58.292Z,5.30
2023-08-15T01:20:05.258Z,5.55
2023-08-15T01:23:08.361Z,5.03
2023-08-15T01:29:13.132Z,5.00
2023-08-15T01:32:28.114Z,5.40
2023-08-15T01:35:34.552Z,5.10
2023-08-15T01:38:40.937Z,5.05
2023-08-15T01:41:46.535Z,5.38
2023-08-15T01:44:49.087Z,5.45
2023-08-15T01:47:52.503Z,5.07
2023-08-15T01:50:54.245Z,5.50
2023-08-15T01:53:55.992Z,5.10
2023-08-15T01:56:59.082Z,5.20
2023-08-15T02:00:00.739Z,6.22
2023-08-15T02:03:02.482Z,5.22
2023-08-15T02:06:04.691Z,5.38
2023-08-15T02:09:06.436Z,5.55
2023-08-15T02:12:09.704Z,5.50
2023-08-15T02:15:11.387Z,5.50
2023-08-15T02:18:13.125Z,5.18
2023-08-15T02:21:14.789Z,4.80
2023-08-15T02:24:16.474Z,5.47
2023-08-15T02:27:19.701Z,5.35
2023-08-15T02:30:21.548Z,5.72
2023-08-15T02:33:23.265Z,5.55
2023-08-15T02:36:24.973Z,5.45
2023-08-15T02:39:26.622Z,5.05
2023-08-15T02:42:29.671Z,5.07
2023-08-15T02:45:31.622Z,5.32
2023-08-15T02:48:33.302Z,5.60
2023-08-15T02:51:34.993Z,5.63
2023-08-15T02:54:36.654Z,5.43
2023-08-15T02:57:39.766Z,5.65
2023-08-15T03:03:42.972Z,5.00
2023-08-15T03:06:44.673Z,5.30
2023-08-15T03:09:46.434Z,5.40
2023-08-15T03:12:49.430Z,5.07
2023-08-15T03:15:52.894Z,5.10
2023-08-15T03:18:54.674Z,5.00
2023-08-15T03:21:57.768Z,5.47
2023-08-15T03:31:08.746Z,4.95
2023-08-15T03:34:10.538Z,5.00
2023-08-15T03:37:12.286Z,5.30
2023-08-15T03:40:14.228Z,5.63
2023-08-15T03:43:17.304Z,5.57
2023-08-15T03:46:19.512Z,4.75
2023-08-15T03:49:21.299Z,5.25
2023-08-15T03:52:23.011Z,5.20
2023-08-15T03:55:24.706Z,5.15
2023-08-15T03:58:27.819Z,5.18
2023-08-15T04:07:32.529Z,4.70
2023-08-15T04:10:35.246Z,5.40
2023-08-15T04:13:39.792Z,5.03
2023-08-15T04:16:41.825Z,5.53
2023-08-15T04:19:44.904Z,5.88
2023-08-15T04:22:46.609Z,5.22
2023-08-15T04:25:49.742Z,5.15
2023-08-15T04:31:55.720Z,5.53
2023-08-15T04:34:57.494Z,5.45
2023-08-15T04:37:59.198Z,5.07
2023-08-15T04:41:00.898Z,6.13
2023-08-15T04:44:04.148Z,4.80
2023-08-15T04:47:06.161Z,4.47
2023-08-15T04:50:08.978Z,5.35
2023-08-15T04:53:10.676Z,5.75
2023-08-15T04:56:12.334Z,5.43
2023-08-15T04:59:15.428Z,5.15
2023-08-15T05:08:20.149Z,4.85
2023-08-15T05:11:23.170Z,5.07
2023-08-15T05:17:31.877Z,5.20
2023-08-15T05:20:33.872Z,4.60
2023-08-15T05:23:35.505Z,4.93
2023-08-15T05:26:37.270Z,4.65
2023-08-15T05:29:58.920Z,5.15
2023-08-15T05:33:01.380Z,5.45
2023-08-15T05:36:03.274Z,4.95
2023-08-15T05:39:05.203Z,5.00
2023-08-15T05:42:07.137Z,4.80
2023-08-15T05:45:11.107Z,4.78
2023-08-15T05:48:12.850Z,5.13
2023-08-15T05:51:14.572Z,5.57
2023-08-15T05:54:16.280Z,5.57
2023-08-15T05:57:17.942Z,8.40
2023-08-15T06:00:21.095Z,6.07
2023-08-15T06:03:39.756Z,4.63
2023-08-15T06:06:45.714Z,4.97
2023-08-15T06:09:47.378Z,5.00
2023-08-15T06:12:49.075Z,5.38
2023-08-15T06:15:52.119Z,6.15
2023-08-15T06:21:55.279Z,4.88
2023-08-15T06:24:57.185Z,5.50
2023-08-15T06:27:58.847Z,6.07
2023-08-15T06:31:01.897Z,5.63
2023-08-15T06:37:05.726Z,5.05
2023-08-15T06:40:08.900Z,5.47
2023-08-15T06:43:10.593Z,5.13
2023-08-15T06:46:13.781Z,5.25
2023-08-15T06:49:15.483Z,5.50
2023-08-15T06:52:17.133Z,4.88
2023-08-15T06:55:18.829Z,4.88
2023-08-15T06:58:20.947Z,5.30
2023-08-15T07:01:24.064Z,4.70
2023-08-15T07:04:25.828Z,5.05
2023-08-15T07:07:27.494Z,4.70
2023-08-15T07:10:29.134Z,4.57
2023-08-15T07:13:30.819Z,5.15
2023-08-15T07:16:33.967Z,6.47
2023-08-15T07:19:35.689Z,5.05
2023-08-15T07:22:37.374Z,5.22
2023-08-15T07:25:39.032Z,5.00
2023-08-15T07:28:40.772Z,4.78
2023-08-15T07:31:43.823Z,5.22
2023-08-15T07:34:45.517Z,5.90
2023-08-15T07:37:47.199Z,5.25
2023-08-15T07:40:48.852Z,5.20
2023-08-15T07:43:50.523Z,5.05
2023-08-15T07:46:53.555Z,5.15
2023-08-15T07:50:13.546Z,5.38
2023-08-15T07:53:15.245Z,5.30
2023-08-15T07:56:16.972Z,5.35
2023-08-15T07:59:18.671Z,5.68
2023-08-15T08:02:21.912Z,5.05
2023-08-15T08:05:24.031Z,5.53
2023-08-15T08:08:25.789Z,5.70
2023-08-15T08:11:27.479Z,5.03
2023-08-15T08:14:29.387Z,5.50
2023-08-15T08:17:32.526Z,5.55
2023-08-15T08:20:34.237Z,6.32
2023-08-15T08:23:35.866Z,5.68
2023-08-15T08:26:37.519Z,5.70
2023-08-15T08:29:39.175Z,5.47
2023-08-15T08:32:42.355Z,5.68
2023-08-15T08:35:44.110Z,5.53
2023-08-15T08:38:45.783Z,4.82
2023-08-15T08:41:47.756Z,5.30
2023-08-15T08:44:50.296Z,5.63
2023-08-15T08:47:53.759Z,5.88
2023-08-15T08:50:57.008Z,5.05
2023-08-15T08:53:58.847Z,5.35
2023-08-15T08:57:01.886Z,4.85
2023-08-15T09:00:04.211Z,4.97
2023-08-15T09:03:08.441Z,4.93
2023-08-15T09:06:10.413Z,4.30
2023-08-15T09:09:13.370Z,4.80
2023-08-15T09:12:33.342Z,4.72
2023-08-15T09:15:35.623Z,5.03
2023-08-15T09:18:38.763Z,4.85
2023-08-15T09:21:40.775Z,4.65
2023-08-15T09:24:45.270Z,5.18
2023-08-15T09:27:47.498Z,4.75
2023-08-15T09:30:53.345Z,4.60
2023-08-15T09:33:57.000Z,4.57
2023-08-15T09:36:59.075Z,4.30
2023-08-15T09:40:01.835Z,4.53
2023-08-15T09:43:04.006Z,4.63
2023-08-15T09:46:05.757Z,4.75
2023-08-15T09:49:09.380Z,4.35
2023-08-15T09:52:12.111Z,4.20
2023-08-15T09:55:15.446Z,4.22
2023-08-15T09:58:17.124Z,4.53
2023-08-15T10:01:20.284Z,4.20
2023-08-15T10:04:24.185Z,3.85
2023-08-15T10:07:28.307Z,4.50
2023-08-15T10:10:34.021Z,4.55
2023-08-15T10:13:37.903Z,5.05
2023-08-15T10:16:39.797Z,4.32
2023-08-15T10:19:46.365Z,4.00
2023-08-15T10:22:50.494Z,4.40
2023-08-15T10:25:53.658Z,4.57
2023-08-15T10:28:57.420Z,4.32
2023-08-15T10:31:59.739Z,4.20
2023-08-15T10:35:04.414Z,4.38
2023-08-15T10:38:14.322Z,3.92
2023-08-15T10:41:17.502Z,4.18
2023-08-15T10:44:19.253Z,4.10
2023-08-15T10:47:24.310Z,4.40
2023-08-15T10:50:27.692Z,4.05
2023-08-15T10:53:29.400Z,4.43
2023-08-15T10:56:32.941Z,4.55
2023-08-15T10:59:37.146Z,4.47
2023-08-15T11:02:38.967Z,4.40
2023-08-15T11:05:42.185Z,4.43
2023-08-15T11:08:45.009Z,4.85
2023-08-15T11:14:49.854Z,4.68
2023-08-15T11:17:51.643Z,4.40
2023-08-15T11:20:54.853Z,4.65
2023-08-15T11:23:59.305Z,4.30
2023-08-15T11:27:00.994Z,4.80
2023-08-15T11:30:02.700Z,4.30
2023-08-15T11:33:05.087Z,4.07
2023-08-15T11:36:08.964Z,4.40
2023-08-15T11:39:14.282Z,4.20
2023-08-15T11:42:16.270Z,4.32
2023-08-15T11:45:19.898Z,4.35
2023-08-15T11:48:22.018Z,4.97
2023-08-15T11:51:25.026Z,4.05
2023-08-15T11:54:27.092Z,4.38
2023-08-15T11:57:35.025Z,4.30
2023-08-15T12:03:40.817Z,4.22
2023-08-15T12:06:43.941Z,4.53
2023-08-15T12:09:45.620Z,4.40
2023-08-15T12:12:48.102Z,4.53
2023-08-15T12:15:49.803Z,4.53
2023-08-15T12:18:51.470Z,4.57
2023-08-15T12:21:54.509Z,4.43
2023-08-15T12:24:56.576Z,4.38
2023-08-15T12:27:58.193Z,4.68
2023-08-15T12:30:59.944Z,4.50
2023-08-15T12:34:01.648Z,4.85
2023-08-15T12:37:04.825Z,4.60
2023-08-15T12:40:14.838Z,4.53
2023-08-15T12:43:23.590Z,4.25
2023-08-15T12:46:25.300Z,4.43
2023-08-15T12:49:26.957Z,3.97
2023-08-15T12:52:30.186Z,4.43
2023-08-15T12:55:31.868Z,4.30
2023-08-15T12:58:33.562Z,4.25
2023-08-15T13:01:35.692Z,3.95
2023-08-15T13:04:37.490Z,4.32
2023-08-15T13:07:40.603Z,4.60
2023-08-15T13:10:44.133Z,4.45
2023-08-15T13:13:45.975Z,4.43
2023-08-15T13:16:47.918Z,4.90
2023-08-15T13:19:49.581Z,4.00
2023-08-15T13:22:52.669Z,4.10
2023-08-15T13:25:54.389Z,4.13
2023-08-15T13:28:56.034Z,4.45
2023-08-15T13:31:57.715Z,4.05
2023-08-15T13:34:59.420Z,4.32
2023-08-15T13:38:02.487Z,3.97
2023-08-15T13:41:04.928Z,4.43
2023-08-15T13:44:06.955Z,4.35
2023-08-15T13:47:08.685Z,4.22
2023-08-15T13:50:10.874Z,4.43
2023-08-15T13:53:13.993Z,4.32
2023-08-15T13:56:16.692Z,4.55
2023-08-15T14:02:20.529Z,3.83
2023-08-15T14:05:22.770Z,4.00
2023-08-15T14:08:26.561Z,4.47
2023-08-15T14:11:28.343Z,4.38
2023-08-15T14:14:30.059Z,3.95
2023-08-15T14:17:31.981Z,4.57
2023-08-15T14:20:35.729Z,4.47
2023-08-15T14:23:38.974Z,4.22
2023-08-15T14:26:40.857Z,3.95
2023-08-15T14:29:42.651Z,4.28
2023-08-15T14:32:44.447Z,4.18
2023-08-15T14:35:46.190Z,3.80
2023-08-15T14:38:50.563Z,4.78
2023-08-15T14:41:52.444Z,4.53
2023-08-15T14:44:55.088Z,5.15
2023-08-15T14:50:58.387Z,4.55
2023-08-15T14:54:01.489Z,4.82
2023-08-15T14:57:03.177Z,4.22
2023-08-15T15:00:06.267Z,4.30
2023-08-15T15:03:08.006Z,4.10
2023-08-15T15:06:09.748Z,4.10
2023-08-15T15:09:12.816Z,4.38
2023-08-15T15:12:14.513Z,4.30
2023-08-15T15:15:16.224Z,4.00
2023-08-15T15:18:17.988Z,4.13
2023-08-15T15:21:19.662Z,4.90
2023-08-15T15:24:23.142Z,4.30
2023-08-15T15:27:24.887Z,4.20
2023-08-15T15:30:26.791Z,4.32
2023-08-15T15:33:29.030Z,4.38
2023-08-15T15:36:30.733Z,4.18
2023-08-15T15:39:34.134Z,4.80
2023-08-15T15:42:35.799Z,4.55
2023-08-15T15:45:37.802Z,4.55
2023-08-15T15:48:39.615Z,5.07
2023-08-15T15:51:41.339Z,4.78
2023-08-15T15:54:44.344Z,4.53
2023-08-15T15:57:46.018Z,4.20
2023-08-15T16:00:47.670Z,4.07
2023-08-15T16:03:49.414Z,4.22
2023-08-15T16:06:51.219Z,4.22
2023-08-15T16:09:54.222Z,4.05
2023-08-15T16:12:55.863Z,5.25
2023-08-15T16:15:57.541Z,4.63
2023-08-15T16:18:59.216Z,5.50
2023-08-15T16:22:00.918Z,4.25
2023-08-15T16:25:04.577Z,4.93
2023-08-15T16:28:06.889Z,4.68
2023-08-15T16:31:08.620Z,4.72
2023-08-15T16:34:10.360Z,4.40
2023-08-15T16:37:12.107Z,4.60
2023-08-15T16:40:15.365Z,4.72
2023-08-15T16:43:18.236Z,4.70
2023-08-15T16:46:19.998Z,5.28
2023-08-15T16:49:22.204Z,5.25
2023-08-15T16:52:24.906Z,5.20
2023-08-15T16:55:29.794Z,5.13
2023-08-15T16:58:31.996Z,5.35
2023-08-15T17:01:33.712Z,5.13
2023-08-15T17:04:35.432Z,4.70
2023-08-15T17:07:38.667Z,4.70
2023-08-15T17:10:41.763Z,5.10
2023-08-15T17:13:46.886Z,5.30
2023-08-15T17:16:50.053Z,5.38
2023-08-15T17:22:53.337Z,4.97
2023-08-15T17:26:00.575Z,6.00
2023-08-15T17:29:05.295Z,5.50
2023-08-15T17:32:07.553Z,6.07
2023-08-15T17:35:09.553Z,4.93
2023-08-15T17:38:13.188Z,5.15
2023-08-15T17:41:16.956Z,4.85
2023-08-15T17:44:18.659Z,5.28
2023-08-15T17:47:20.383Z,4.85
2023-08-15T17:50:22.105Z,5.38
2023-08-15T17:53:23.824Z,5.38
2023-08-15T17:56:27.474Z,5.57
2023-08-15T17:59:29.966Z,5.40
2023-08-15T18:02:32.745Z,5.20
2023-08-15T18:05:35.079Z,5.53
2023-08-15T18:08:37.813Z,5.43
2023-08-15T18:11:41.656Z,6.00
2023-08-15T18:14:43.369Z,5.30
2023-08-15T18:17:45.117Z,5.93
2023-08-15T18:20:47.832Z,6.43
2023-08-15T18:23:50.018Z,6.63
2023-08-15T18:26:53.165Z,5.68
2023-08-15T18:29:55.366Z,6.13
2023-08-15T18:32:57.694Z,6.00
2023-08-15T18:35:59.964Z,5.60
2023-08-15T18:39:02.201Z,5.95
2023-08-15T18:42:06.719Z,5.50
2023-08-15T18:45:09.581Z,5.90
2023-08-15T18:48:12.151Z,5.15
2023-08-15T18:51:13.953Z,5.55
2023-08-15T18:54:16.612Z,6.30
2023-08-15T18:57:20.195Z,5.55
2023-08-15T19:00:22.912Z,5.32
2023-08-15T19:03:26.705Z,5.95
2023-08-15T19:06:29.007Z,5.88
2023-08-15T19:09:31.729Z,6.35
2023-08-15T19:12:36.082Z,6.07
2023-08-15T19:15:39.389Z,6.15
2023-08-15T19:18:42.066Z,5.68
2023-08-15T19:21:44.548Z,6.25
2023-08-15T19:24:46.667Z,6.28
2023-08-15T19:27:50.582Z,6.50
2023-08-15T19:31:01.584Z,6.22
2023-08-15T19:34:04.073Z,5.95
2023-08-15T19:37:06.285Z,5.95
2023-08-15T19:40:09.901Z,5.78
2023-08-15T19:43:13.698Z,6.35
2023-08-15T19:46:16.005Z,6.82
2023-08-15T19:49:18.189Z,6.18
2023-08-15T19:52:21.203Z,5.82
2023-08-15T19:55:23.841Z,6.55
2023-08-15T19:58:27.358Z,6.00
2023-08-15T20:01:29.535Z,6.35
2023-08-15T20:04:31.795Z,6.05
2023-08-15T20:07:35.814Z,6.75
2023-08-15T20:10:40.144Z,6.13
2023-08-15T20:13:44.166Z,6.15
2023-08-15T20:16:46.554Z,6.43
2023-08-15T20:19:48.604Z,6.78
2023-08-15T20:22:51.044Z,6.05
2023-08-15T20:25:53.247Z,6.32
2023-08-15T20:28:56.316Z,6.13
2023-08-15T20:35:00.205Z,5.15
2023-08-15T20:38:02.314Z,5.68
2023-08-15T20:41:04.500Z,5.45
2023-08-15T20:44:08.160Z,5.70
2023-08-15T20:47:09.886Z,5.88
2023-08-15T20:50:11.677Z,5.40
2023-08-15T20:53:13.404Z,5.32
2023-08-15T20:56:15.081Z,6.00
2023-08-15T20:59:18.169Z,5.65
2023-08-15T21:05:21.482Z,5.43
2023-08-15T21:08:23.148Z,5.40
2023-08-15T21:11:24.836Z,5.22
2023-08-15T21:14:27.982Z,6.32
2023-08-15T21:20:31.368Z,5.40
2023-08-15T21:23:33.046Z,5.53
2023-08-15T21:26:35.958Z,5.93
2023-08-15T21:29:40.208Z,5.47
2023-08-15T21:32:41.945Z,5.60
2023-08-15T21:35:43.851Z,5.10
2023-08-15T21:38:45.591Z,5.85
2023-08-15T21:41:47.297Z,5.90
2023-08-15T21:44:50.392Z,5.97
2023-08-15T21:50:53.626Z,6.22
2023-08-15T21:53:55.325Z,5.93
2023-08-15T21:57:03.643Z,5.75
2023-08-15T22:00:08.147Z,5.65
2023-08-15T22:03:10.103Z,5.28
2023-08-15T22:06:11.920Z,6.28
2023-08-15T22:09:13.651Z,6.15
2023-08-15T22:12:15.333Z,5.57
2023-08-15T22:15:19.054Z,5.13
2023-08-15T22:18:21.867Z,5.32
2023-08-15T22:21:23.881Z,5.53
2023-08-15T22:24:25.569Z,5.70
2023-08-15T22:27:27.305Z,5.72
2023-08-15T22:30:30.718Z,5.22
2023-08-15T22:33:32.453Z,5.45
2023-08-15T22:36:34.124Z,5.97
2023-08-15T22:39:35.806Z,5.45
2023-08-15T22:42:37.455Z,5.35
2023-08-15T22:45:40.539Z,6.05
2023-08-15T22:54:45.214Z,4.70
2023-08-15T22:57:46.931Z,5.68
2023-08-15T23:00:55.000Z,6.53
2023-08-15T23:03:56.768Z,5.60
2023-08-15T23:06:58.464Z,4.97
2023-08-15T23:10:00.175Z,5.75
2023-08-15T23:13:01.838Z,5.57
2023-08-15T23:16:05.358Z,5.75
2023-08-15T23:19:07.018Z,6.10
2023-08-15T23:22:08.665Z,5.50
2023-08-15T23:25:10.321Z,5.47
2023-08-15T23:28:12.356Z,5.65
2023-08-15T23:31:15.424Z,5.68
2023-08-15T23:37:19.283Z,5.70
2023-08-15T23:40:20.963Z,5.53
2023-08-15T23:43:22.697Z,5.78
2023-08-15T23:46:25.880Z,6.13
2023-08-15T23:55:30.496Z,6.45
2023-08-15T23:58:32.179Z,5.90
